»·PEaware :: N9617W KRAL-KSBA

N9617W :: KRAL-KSBA

FLIGHT INFORMATION

Flight Status: Arrived
Operator: Privately registered:
United States
More flights under this callsign
Pilot: Patrick W. (20081)
Aircraft: PIPER PA-28 CHEROKEE ARCHER
(PA28)
More flights by this aircraft type
Origin: KRAL Riverside Mun
United States
Destination: KSBA Santa Barbara Mun
United States
More flights between these airports :: More routes between these airports
Route: +POM167R POM POM269R VNY
File this flight plan on PilotEdge
Remarks: CAT-11 & I-8 Rated
Altitude:
(Current/Filed)
6,500ft
Speed:
(Current/Filed)
140kts
Departed: 10-Sep-18 10:53 AM
Arrived: 10-Sep-18 12:21 PM
Distance/Time
Traveled:
122nm/1:28
Distance/Time
To Go:
Arrived

Flight Plot

Page will automatically refresh every two minutes.

Flight plan parsing failed; only flown route is shown


Map Options




Map Legend


Flown Route
Filed Route
Departure Airport
Arrival Airport
Navaid (VOR, NDB)
Fix

Horizontal Profiles

Position Reports

Time Latitude Longitude Heading Altitude Ground
Speed
10-Sep-18 10:43 33.951067 -117.445064 11 771ft 0kts
10-Sep-18 10:44 33.951067 -117.445064 11 771ft 0kts
10-Sep-18 10:45 33.951067 -117.445064 11 771ft 0kts
10-Sep-18 10:46 33.951067 -117.445064 11 771ft 0kts
10-Sep-18 10:47 33.951067 -117.445064 11 771ft 0kts
10-Sep-18 10:48 33.951067 -117.445064 11 771ft 0kts
10-Sep-18 10:49 33.951067 -117.445064 11 771ft 0kts
10-Sep-18 10:50 33.951256 -117.444835 116 773ft 6kts
10-Sep-18 10:51 33.951048 -117.444042 59 776ft 0kts
10-Sep-18 10:52 33.951392 -117.443132 103 783ft 11kts
10-Sep-18 10:53 33.950344 -117.437598 104 807ft 18kts
10-Sep-18 10:54 33.950030 -117.434921 14 812ft 3kts
10-Sep-18 10:55 33.952456 -117.444311 284 831ft 87kts
10-Sep-18 10:56 33.952027 -117.473263 264 1632ft 93kts
10-Sep-18 10:57 33.948635 -117.500341 259 2539ft 78kts
10-Sep-18 10:58 33.944588 -117.527207 259 3300ft 76kts
10-Sep-18 10:59 33.939879 -117.553963 264 3899ft 84kts
10-Sep-18 11:00 33.938180 -117.582202 259 4502ft 85kts
10-Sep-18 11:01 33.934133 -117.608978 260 5135ft 78kts
10-Sep-18 11:02 33.931014 -117.635081 268 5646ft 83kts
10-Sep-18 11:03 33.927526 -117.662732 263 6235ft 75kts
10-Sep-18 11:04 33.924871 -117.688998 270 6449ft 89kts
10-Sep-18 11:05 33.923018 -117.720331 273 6583ft 101kts
10-Sep-18 11:06 33.925356 -117.757591 279 6535ft 118kts
10-Sep-18 11:07 33.945431 -117.781508 346 6593ft 116kts
10-Sep-18 11:08 33.976602 -117.790230 345 6465ft 115kts
10-Sep-18 11:09 34.004873 -117.804596 322 6443ft 111kts
10-Sep-18 11:10 34.030419 -117.824174 320 6436ft 109kts
10-Sep-18 11:11 34.055129 -117.843749 333 6527ft 107kts
10-Sep-18 11:12 34.079872 -117.863905 326 6540ft 107kts
10-Sep-18 11:13 34.101184 -117.888471 290 6609ft 105kts
10-Sep-18 11:14 34.101408 -117.926630 281 6474ft 116kts
10-Sep-18 11:15 34.108971 -117.962899 289 6526ft 109kts
10-Sep-18 11:16 34.116603 -117.996760 285 6526ft 108kts
10-Sep-18 11:17 34.123975 -118.032004 283 6475ft 111kts
10-Sep-18 11:18 34.131505 -118.066617 284 6518ft 106kts
10-Sep-18 11:19 34.138560 -118.100940 282 6547ft 106kts
10-Sep-18 11:20 34.144461 -118.136012 283 6576ft 104kts
10-Sep-18 11:21 34.151857 -118.170802 288 6593ft 107kts
10-Sep-18 11:22 34.162369 -118.204788 295 6582ft 112kts
10-Sep-18 11:23 34.173926 -118.239481 275 6543ft 112kts
10-Sep-18 11:24 34.170140 -118.276335 281 6605ft 110kts
10-Sep-18 11:25 34.175968 -118.313274 282 6570ft 114kts
10-Sep-18 11:26 34.181214 -118.351851 287 6522ft 114kts
10-Sep-18 11:27 34.185399 -118.389617 274 6523ft 115kts
10-Sep-18 11:28 34.185201 -118.428247 269 6518ft 115kts
10-Sep-18 11:29 34.179868 -118.466493 270 6550ft 113kts
10-Sep-18 11:30 34.180264 -118.505065 275 6525ft 113kts
10-Sep-18 11:31 34.181925 -118.543543 279 6513ft 114kts
10-Sep-18 11:32 34.187597 -118.574483 291 6510ft 113kts
10-Sep-18 11:33 34.200874 -118.608707 301 6512ft 112kts
10-Sep-18 11:34 34.225035 -118.630559 309 6488ft 110kts
10-Sep-18 11:35 34.236658 -118.646312 318 6468ft 111kts
10-Sep-18 11:36 34.257471 -118.669500 319 6518ft 109kts
10-Sep-18 11:37 34.279336 -118.691404 316 6512ft 112kts
10-Sep-18 11:38 34.291788 -118.725658 289 6536ft 112kts
10-Sep-18 11:39 34.300075 -118.762284 287 6541ft 113kts
10-Sep-18 11:40 34.303664 -118.798234 264 6717ft 105kts
10-Sep-18 11:41 34.301492 -118.830005 273 7161ft 85kts
10-Sep-18 11:42 34.300002 -118.857140 268 7730ft 80kts
10-Sep-18 11:43 34.296760 -118.883717 268 8308ft 79kts
10-Sep-18 11:44 34.293384 -118.912722 264 8618ft 98kts
10-Sep-18 11:45 34.283237 -118.948537 236 8628ft 123kts
10-Sep-18 11:46 34.259502 -118.979771 228 8465ft 126kts
10-Sep-18 11:47 34.234253 -119.008317 228 8456ft 119kts
10-Sep-18 11:48 34.209599 -119.033837 226 8508ft 121kts
10-Sep-18 11:49 34.186054 -119.061478 233 8457ft 117kts
10-Sep-18 11:50 34.165032 -119.090722 235 8391ft 114kts
10-Sep-18 11:51 34.160029 -119.122665 288 8475ft 94kts
10-Sep-18 11:52 34.170269 -119.151917 299 8544ft 96kts
10-Sep-18 11:53 34.188787 -119.176705 310 8437ft 108kts
10-Sep-18 11:54 34.208665 -119.201647 319 8465ft 100kts
10-Sep-18 11:55 34.223998 -119.229188 282 8395ft 103kts
10-Sep-18 11:56 34.225827 -119.263948 276 8388ft 103kts
10-Sep-18 11:57 34.226080 -119.294756 270 8431ft 104kts
10-Sep-18 11:58 34.223017 -119.329259 268 8476ft 104kts
10-Sep-18 11:59 34.226683 -119.362671 291 8537ft 101kts
10-Sep-18 12:00 34.235513 -119.395253 296 8443ft 104kts
10-Sep-18 12:01 34.251344 -119.423569 302 8530ft 97kts
10-Sep-18 12:02 34.267223 -119.452991 310 8505ft 110kts
10-Sep-18 12:03 34.288449 -119.479555 311 8528ft 109kts
10-Sep-18 12:04 34.308893 -119.506724 309 8557ft 109kts
10-Sep-18 12:05 34.330278 -119.532033 320 8442ft 109kts
10-Sep-18 12:06 34.353922 -119.556430 315 8182ft 117kts
10-Sep-18 12:07 34.378081 -119.580500 300 7776ft 110kts
10-Sep-18 12:08 34.388136 -119.616240 283 6300ft 117kts
10-Sep-18 12:09 34.381450 -119.636242 131 4950ft 124kts
10-Sep-18 12:10 34.375890 -119.601321 108 4041ft 111kts
10-Sep-18 12:11 34.377414 -119.562079 68 2462ft 145kts
10-Sep-18 12:12 34.397797 -119.571007 280 1622ft 97kts
10-Sep-18 12:13 34.401126 -119.600469 272 1514ft 80kts
10-Sep-18 12:14 34.401779 -119.629939 269 1780ft 92kts
10-Sep-18 12:15 34.406621 -119.659392 279 1889ft 88kts
10-Sep-18 12:16 34.417939 -119.687981 290 2024ft 83kts
10-Sep-18 12:17 34.427297 -119.712232 312 1844ft 90kts
10-Sep-18 12:18 34.435172 -119.738869 251 1523ft 89kts
10-Sep-18 12:19 34.430605 -119.763703 259 1267ft 67kts
10-Sep-18 12:20 34.429075 -119.787137 261 1167ft 71kts
10-Sep-18 12:21 34.428387 -119.810527 259 513ft 66kts
10-Sep-18 12:22 34.427965 -119.833330 263 86ft 69kts
10-Sep-18 12:23 34.428155 -119.846120 38 12ft 0kts
10-Sep-18 12:24 34.428695 -119.844977 59 12ft 16kts
10-Sep-18 12:25 34.430746 -119.839642 69 12ft 13kts
10-Sep-18 12:26 34.432026 -119.835464 14 12ft 9kts
10-Sep-18 12:27 34.432296 -119.836040 164 12ft 0kts
10-Sep-18 12:28 34.432296 -119.836040 164 12ft 0kts

Navigation Log

Ident Type
Flight plan parsing failed, navigation log unavailable